Weather at Schaumburg Regional Airport

Public forecast

Using degrees Fahrenheit for public forecast. Weather courtesy of forecast.io.

Current aviation weather report (METAR) for Schaumburg Regional Airport

(retrieved 0 seconds ago)

Closest aviation forecast (TAF) to Schaumburg Regional Airport

Closest forecast is Dupage Airport, 8.2 nm (15.2 km) SW.

2022/12/02 21:06 Ammendment (retrieved 2 hours ago)

TAF AMD KDPA 022104Z 0221/0318 19020G30KT P6SM SCT040 FM022300 20021G34KT P6SM BKN030 TEMPO 0304/0306 5SM -SHRADZ SCT010 BKN020 FM030600 28024G39KT P6SM BKN020 FM031100 29020G33KT P6SM SCT035 FM031400 29017G27KT P6SM SKC